createdAt,value
2023-01-20T00:00:46.549Z,28.47
2023-01-20T00:03:16.729Z,36.37
2023-01-20T00:05:54.223Z,36.03
2023-01-20T00:08:24.378Z,37.53
2023-01-20T00:10:57.083Z,28.23
2023-01-20T00:13:27.391Z,31.67
2023-01-20T00:15:57.396Z,28.00
2023-01-20T00:18:27.414Z,25.93
2023-01-20T00:20:57.407Z,29.30
2023-01-20T00:23:27.508Z,34.13
2023-01-20T00:26:00.209Z,36.43
2023-01-20T00:28:30.301Z,29.67
2023-01-20T00:31:00.590Z,33.93
2023-01-20T00:33:30.716Z,31.10
2023-01-20T00:36:00.727Z,29.37
2023-01-20T00:38:30.746Z,31.20
2023-01-20T00:41:03.587Z,33.63
2023-01-20T00:43:33.661Z,28.97
2023-01-20T00:46:03.714Z,23.53
2023-01-20T00:48:33.984Z,35.50
2023-01-20T00:51:04.222Z,27.60
2023-01-20T00:53:34.379Z,32.77
2023-01-20T00:56:08.224Z,26.33
2023-01-20T00:58:38.257Z,27.20
2023-01-20T01:01:08.962Z,31.33
2023-01-20T01:03:39.032Z,25.50
2023-01-20T01:06:12.602Z,25.80
2023-01-20T01:08:43.130Z,31.57
2023-01-20T01:11:16.936Z,25.90
2023-01-20T01:13:47.002Z,30.70
2023-01-20T01:16:19.163Z,27.40
2023-01-20T01:18:49.180Z,25.17
2023-01-20T01:21:20.182Z,32.03
2023-01-20T01:23:51.916Z,36.27
2023-01-20T01:26:24.686Z,26.90
2023-01-20T01:28:54.949Z,30.03
2023-01-20T01:31:25.001Z,30.13
2023-01-20T01:33:54.984Z,21.77
2023-01-20T01:36:24.989Z,31.37
2023-01-20T01:38:58.479Z,26.47
2023-01-20T01:41:32.066Z,23.80
2023-01-20T01:44:10.426Z,29.73
2023-01-20T01:46:41.297Z,26.70
2023-01-20T01:49:18.436Z,27.03
2023-01-20T01:51:53.946Z,27.87
2023-01-20T01:54:30.328Z,26.00
2023-01-20T01:57:03.733Z,30.97
2023-01-20T01:59:34.073Z,26.70
2023-01-20T02:02:04.311Z,26.73
2023-01-20T02:04:35.221Z,23.70
2023-01-20T02:07:11.570Z,30.30
2023-01-20T02:09:41.979Z,24.23
2023-01-20T02:12:19.422Z,24.83
2023-01-20T02:14:55.236Z,24.00
2023-01-20T02:17:34.431Z,37.33
2023-01-20T02:21:01.444Z,25.43
2023-01-20T02:24:18.282Z,23.50
2023-01-20T02:27:06.080Z,22.10
2023-01-20T02:30:37.458Z,30.87
2023-01-20T02:33:16.081Z,24.27
2023-01-20T02:35:52.466Z,35.27
2023-01-20T02:38:33.928Z,26.50
2023-01-20T02:41:16.567Z,25.30
2023-01-20T02:43:55.575Z,25.50
2023-01-20T02:46:34.887Z,28.97
2023-01-20T02:49:19.089Z,24.20
2023-01-20T02:51:56.960Z,25.30
2023-01-20T02:54:32.320Z,20.10
2023-01-20T02:57:08.164Z,26.20
2023-01-20T02:59:45.624Z,28.23
2023-01-20T03:02:21.940Z,29.33
2023-01-20T03:05:01.565Z,28.20
2023-01-20T03:07:51.390Z,23.83
2023-01-20T03:10:27.469Z,27.17
2023-01-20T03:13:05.502Z,25.30
2023-01-20T03:15:44.035Z,25.10
2023-01-20T03:18:14.026Z,28.53
2023-01-20T03:20:46.709Z,28.17
2023-01-20T03:23:16.873Z,27.47
2023-01-20T03:25:50.347Z,25.67
2023-01-20T03:28:20.452Z,28.37
2023-01-20T03:30:50.616Z,30.77
2023-01-20T03:33:21.296Z,24.43
2023-01-20T03:35:55.212Z,28.00
2023-01-20T03:38:25.424Z,25.87
2023-01-20T03:41:05.463Z,28.23
2023-01-20T03:43:47.542Z,22.53
2023-01-20T03:46:30.300Z,30.80
2023-01-20T03:49:12.444Z,24.90
2023-01-20T03:52:01.930Z,26.27
2023-01-20T03:54:41.271Z,29.37
2023-01-20T03:57:20.072Z,21.87
2023-01-20T03:59:53.986Z,28.30
2023-01-20T04:02:26.648Z,27.97
2023-01-20T04:04:59.369Z,28.27
2023-01-20T04:07:35.054Z,28.83
2023-01-20T04:10:13.438Z,28.23
2023-01-20T04:12:43.682Z,37.60
2023-01-20T04:15:14.693Z,24.17
2023-01-20T04:17:45.135Z,23.50
2023-01-20T04:20:18.622Z,30.43
2023-01-20T04:22:57.443Z,29.67
2023-01-20T04:25:31.533Z,32.57
2023-01-20T04:28:01.820Z,27.73
2023-01-20T04:30:31.894Z,27.23
2023-01-20T04:33:01.895Z,30.43
2023-01-20T04:35:31.920Z,31.53
2023-01-20T04:38:04.488Z,28.20
2023-01-20T04:40:34.808Z,29.37
2023-01-20T04:43:04.791Z,28.70
2023-01-20T04:45:34.772Z,31.50
2023-01-20T04:48:08.973Z,29.83
2023-01-20T04:50:42.189Z,30.90
2023-01-20T04:53:19.326Z,30.43
2023-01-20T04:55:49.535Z,27.23
2023-01-20T04:58:19.524Z,26.40
2023-01-20T05:00:49.966Z,30.07
2023-01-20T05:03:20.046Z,31.40
2023-01-20T05:05:55.911Z,27.27
2023-01-20T05:08:28.663Z,28.43
2023-01-20T05:10:58.631Z,30.50
2023-01-20T05:13:28.648Z,37.30
2023-01-20T05:16:01.244Z,27.00
2023-01-20T05:18:34.052Z,28.83
2023-01-20T05:21:04.103Z,27.67
2023-01-20T05:23:36.795Z,24.27
2023-01-20T05:26:06.944Z,28.60
2023-01-20T05:28:36.908Z,26.60
2023-01-20T05:31:06.965Z,29.53
2023-01-20T05:33:37.958Z,26.90
2023-01-20T05:36:09.042Z,31.27
2023-01-20T05:38:41.807Z,32.80
2023-01-20T05:41:13.434Z,35.57
2023-01-20T05:43:43.558Z,27.03
2023-01-20T05:46:13.583Z,31.10
2023-01-20T05:48:43.566Z,29.30
2023-01-20T05:51:13.554Z,39.07
2023-01-20T05:53:46.147Z,29.43
2023-01-20T05:56:16.339Z,31.33
2023-01-20T05:58:46.423Z,31.70
2023-01-20T06:01:17.617Z,23.37
2023-01-20T06:03:47.621Z,32.90
2023-01-20T06:06:18.458Z,33.40
2023-01-20T06:08:51.025Z,28.63
2023-01-20T06:11:21.531Z,40.13
2023-01-20T06:13:52.391Z,29.73
2023-01-20T06:16:23.604Z,30.80
2023-01-20T06:18:53.645Z,34.33
2023-01-20T06:21:24.895Z,32.27
2023-01-20T06:23:57.467Z,27.70
2023-01-20T06:26:27.549Z,31.70
2023-01-20T06:29:02.279Z,37.93
2023-01-20T06:31:32.363Z,43.40
2023-01-20T06:34:02.419Z,33.67
2023-01-20T06:36:32.437Z,32.43
2023-01-20T06:39:05.105Z,30.03
2023-01-20T06:41:35.117Z,35.10
2023-01-20T06:44:05.068Z,30.30
2023-01-20T06:46:35.150Z,29.97
2023-01-20T06:49:05.261Z,28.90
2023-01-20T06:51:35.458Z,29.93
2023-01-20T06:54:08.257Z,33.20
2023-01-20T06:56:38.411Z,35.60
2023-01-20T06:59:08.387Z,33.77
2023-01-20T07:01:38.471Z,36.73
2023-01-20T07:04:08.956Z,40.87
2023-01-20T07:06:41.726Z,38.00
2023-01-20T07:09:16.218Z,31.00
2023-01-20T07:11:46.176Z,36.53
2023-01-20T07:14:16.130Z,25.83
2023-01-20T07:16:46.203Z,30.73
2023-01-20T07:19:16.472Z,32.00
2023-01-20T07:21:46.495Z,33.87
2023-01-20T07:24:19.070Z,32.20
2023-01-20T07:26:49.049Z,37.23
2023-01-20T07:29:19.034Z,33.60
2023-01-20T07:31:49.166Z,34.30
2023-01-20T07:34:19.180Z,34.63
2023-01-20T07:36:49.202Z,34.90
2023-01-20T07:39:22.102Z,30.47
2023-01-20T07:41:52.103Z,34.37
2023-01-20T07:44:23.698Z,33.53
2023-01-20T07:46:54.561Z,30.57
2023-01-20T07:49:24.569Z,33.70
2023-01-20T07:51:54.644Z,58.40
2023-01-20T07:54:27.221Z,30.57
2023-01-20T07:56:57.300Z,32.83
2023-01-20T07:59:29.067Z,28.40
2023-01-20T08:01:59.102Z,27.87
2023-01-20T08:04:29.153Z,28.17
2023-01-20T08:06:59.172Z,27.70
2023-01-20T08:09:31.995Z,26.73
2023-01-20T08:12:02.308Z,28.70
2023-01-20T08:14:32.300Z,27.70
2023-01-20T08:17:02.563Z,28.50
2023-01-20T08:19:32.750Z,37.80
2023-01-20T08:22:02.732Z,26.33
2023-01-20T08:24:35.556Z,33.90
2023-01-20T08:27:05.627Z,31.00
2023-01-20T08:29:36.251Z,34.20
2023-01-20T08:32:06.277Z,30.50
2023-01-20T08:34:37.619Z,27.77
2023-01-20T08:37:07.805Z,33.80
2023-01-20T08:39:40.465Z,36.23
2023-01-20T08:42:10.465Z,30.10
2023-01-20T08:44:40.564Z,26.60
2023-01-20T08:47:10.551Z,24.43
2023-01-20T08:49:40.577Z,23.53
2023-01-20T08:52:12.206Z,28.23
2023-01-20T08:54:44.895Z,24.27
2023-01-20T08:57:16.250Z,26.80
2023-01-20T08:59:47.366Z,27.83
2023-01-20T09:02:17.428Z,28.63
2023-01-20T09:04:49.678Z,31.83
2023-01-20T09:07:21.402Z,26.00
2023-01-20T09:09:53.951Z,25.33
2023-01-20T09:12:24.002Z,22.23
2023-01-20T09:14:53.979Z,28.23
2023-01-20T09:17:23.940Z,25.13
2023-01-20T09:19:54.616Z,25.47
2023-01-20T09:22:24.650Z,22.80
2023-01-20T09:24:57.277Z,21.57
2023-01-20T09:27:27.268Z,23.13
2023-01-20T09:29:57.225Z,27.33
2023-01-20T09:32:30.728Z,23.50
2023-01-20T09:35:00.713Z,25.03
2023-01-20T09:37:43.619Z,26.47
2023-01-20T09:40:36.914Z,27.13
2023-01-20T09:43:35.843Z,23.87
2023-01-20T09:46:15.584Z,27.93
2023-01-20T09:49:12.334Z,19.30
2023-01-20T09:52:07.818Z,21.33
2023-01-20T09:54:46.733Z,24.23
2023-01-20T09:57:24.602Z,19.50
2023-01-20T10:00:05.074Z,20.17
2023-01-20T10:02:39.831Z,21.87
2023-01-20T10:05:16.267Z,21.70
2023-01-20T10:07:55.720Z,20.67
2023-01-20T10:10:33.821Z,22.13
2023-01-20T10:13:16.104Z,19.13
2023-01-20T10:15:51.390Z,20.93
2023-01-20T10:18:30.525Z,20.90
2023-01-20T10:21:08.684Z,26.87
2023-01-20T10:23:49.379Z,18.27
2023-01-20T10:26:25.371Z,18.97
2023-01-20T10:29:03.948Z,19.43
2023-01-20T10:31:43.806Z,20.73
2023-01-20T10:34:21.042Z,18.47
2023-01-20T10:37:02.006Z,26.33
2023-01-20T10:39:43.430Z,16.57
2023-01-20T10:42:18.578Z,17.83
2023-01-20T10:44:54.123Z,18.63
2023-01-20T10:47:41.001Z,19.50
2023-01-20T10:50:45.273Z,16.07
2023-01-20T10:53:43.407Z,12.93
2023-01-20T10:56:37.709Z,16.20
2023-01-20T10:59:16.426Z,18.97
2023-01-20T11:02:06.224Z,23.53
2023-01-20T11:04:41.457Z,18.07
2023-01-20T11:07:20.630Z,13.20
2023-01-20T11:09:51.967Z,13.47
2023-01-20T11:12:27.477Z,17.77
2023-01-20T11:15:02.368Z,21.67
2023-01-20T11:17:35.030Z,14.00
2023-01-20T11:20:10.347Z,12.00
2023-01-20T11:22:41.214Z,12.03
2023-01-20T11:25:28.006Z,15.40
2023-01-20T11:27:58.683Z,17.00
2023-01-20T11:30:34.276Z,17.33
2023-01-20T11:33:22.036Z,13.00
2023-01-20T11:36:07.386Z,16.37
2023-01-20T11:38:47.306Z,17.70
2023-01-20T11:41:26.224Z,18.17
2023-01-20T11:43:58.781Z,15.90
2023-01-20T11:46:33.376Z,13.57
2023-01-20T11:49:19.299Z,16.53
2023-01-20T11:51:53.909Z,13.83
2023-01-20T11:54:27.208Z,13.67
2023-01-20T11:57:04.764Z,13.07
2023-01-20T11:59:39.161Z,14.87
2023-01-20T12:02:27.543Z,14.73
2023-01-20T12:05:18.194Z,14.63
2023-01-20T12:07:55.125Z,12.50
2023-01-20T12:10:31.165Z,12.70
2023-01-20T12:13:10.588Z,10.37
2023-01-20T12:15:53.010Z,13.47
2023-01-20T12:18:36.803Z,15.80
2023-01-20T12:21:18.436Z,10.30
2023-01-20T12:24:00.232Z,14.60
2023-01-20T12:26:32.244Z,7.27
2023-01-20T12:29:16.353Z,10.20
2023-01-20T12:31:49.256Z,10.03
2023-01-20T12:34:26.907Z,10.03
2023-01-20T12:37:18.224Z,12.70
2023-01-20T12:40:19.056Z,11.70
2023-01-20T12:43:27.048Z,11.73
2023-01-20T12:46:28.000Z,7.07
2023-01-20T12:49:22.535Z,8.23
2023-01-20T12:52:20.733Z,9.13
2023-01-20T12:55:19.712Z,8.03
2023-01-20T12:58:03.380Z,8.53
2023-01-20T13:00:57.095Z,12.07
2023-01-20T13:04:12.548Z,9.57
2023-01-20T13:07:14.041Z,8.00
2023-01-20T13:10:03.335Z,7.73
2023-01-20T13:12:46.490Z,13.80
2023-01-20T13:15:30.649Z,9.40
2023-01-20T13:18:28.835Z,10.47
2023-01-20T13:20:59.455Z,9.30
2023-01-20T13:23:37.226Z,9.27
2023-01-20T13:26:09.151Z,9.37
2023-01-20T13:28:39.198Z,11.20
2023-01-20T13:31:46.684Z,9.27
2023-01-20T13:34:42.082Z,8.30
2023-01-20T13:37:40.447Z,13.33
2023-01-20T13:40:52.763Z,12.40
2023-01-20T13:43:40.337Z,7.07
2023-01-20T13:46:46.237Z,7.67
2023-01-20T13:49:27.715Z,8.97
2023-01-20T13:51:58.276Z,9.67
2023-01-20T13:54:47.298Z,8.20
2023-01-20T13:57:39.771Z,7.20
2023-01-20T14:00:30.897Z,7.90
2023-01-20T14:03:01.011Z,6.80
2023-01-20T14:05:34.832Z,5.83
2023-01-20T14:08:04.798Z,5.00
2023-01-20T14:10:34.899Z,6.30
2023-01-20T14:13:13.130Z,12.70
2023-01-20T14:15:43.675Z,14.43
2023-01-20T14:18:22.986Z,16.47
2023-01-20T14:21:21.530Z,15.03
2023-01-20T14:23:52.981Z,17.27
2023-01-20T14:26:30.500Z,11.00
2023-01-20T14:29:04.793Z,13.83
2023-01-20T14:31:42.600Z,11.73
2023-01-20T14:34:30.435Z,12.80
2023-01-20T14:37:05.992Z,14.30
2023-01-20T14:39:36.403Z,14.03
2023-01-20T14:42:06.907Z,12.50
2023-01-20T14:44:40.083Z,11.47
2023-01-20T14:47:12.305Z,10.17
2023-01-20T14:49:44.817Z,13.60
2023-01-20T14:52:23.655Z,12.10
2023-01-20T14:54:56.364Z,12.83
2023-01-20T14:57:32.983Z,12.43
2023-01-20T15:00:21.937Z,10.40
2023-01-20T15:03:10.368Z,8.30
2023-01-20T15:05:44.703Z,14.30
2023-01-20T15:09:05.051Z,13.47
2023-01-20T15:11:36.522Z,10.03
2023-01-20T15:14:15.564Z,14.00
2023-01-20T15:16:53.649Z,12.53
2023-01-20T15:19:38.638Z,12.87
2023-01-20T15:22:25.161Z,16.30
2023-01-20T15:24:56.529Z,13.03
2023-01-20T15:27:34.395Z,13.30
2023-01-20T15:30:19.613Z,14.77
2023-01-20T15:32:54.304Z,19.03
2023-01-20T15:35:29.029Z,16.00
2023-01-20T15:37:59.067Z,11.13
2023-01-20T15:40:29.330Z,14.50
2023-01-20T15:42:59.463Z,13.63
2023-01-20T15:45:29.533Z,15.10
2023-01-20T15:48:05.291Z,22.60
2023-01-20T15:50:35.542Z,14.17
2023-01-20T15:53:06.551Z,15.70
2023-01-20T15:55:36.995Z,21.40
2023-01-20T15:58:28.742Z,16.70
2023-01-20T16:01:00.676Z,15.67
2023-01-20T16:03:35.557Z,24.03
2023-01-20T16:06:05.597Z,18.00
2023-01-20T16:08:40.475Z,15.33
2023-01-20T16:11:13.369Z,24.70
2023-01-20T16:13:44.618Z,23.00
2023-01-20T16:16:17.118Z,35.43
2023-01-20T16:18:50.828Z,35.90
2023-01-20T16:21:22.452Z,39.73
2023-01-20T16:23:52.453Z,31.97
2023-01-20T16:26:25.768Z,20.03
2023-01-20T16:28:58.172Z,19.50
2023-01-20T16:31:30.456Z,22.00
2023-01-20T16:34:04.371Z,27.50
2023-01-20T16:36:34.495Z,24.97
2023-01-20T16:39:04.650Z,25.60
2023-01-20T16:41:34.651Z,33.43
2023-01-20T16:44:04.621Z,27.53
2023-01-20T16:46:35.594Z,27.77
2023-01-20T16:49:08.176Z,28.03
2023-01-20T16:51:38.200Z,24.10
2023-01-20T16:54:08.625Z,27.60
2023-01-20T16:56:38.631Z,24.03
2023-01-20T16:59:08.618Z,28.43
2023-01-20T17:01:38.611Z,36.63
2023-01-20T17:04:11.190Z,21.77
2023-01-20T17:06:41.290Z,27.43
2023-01-20T17:09:12.328Z,25.87
2023-01-20T17:11:43.093Z,25.80
2023-01-20T17:14:15.650Z,26.67
2023-01-20T17:16:45.699Z,31.30
2023-01-20T17:19:18.999Z,47.10
2023-01-20T17:21:50.104Z,39.73
2023-01-20T17:24:20.357Z,49.07
2023-01-20T17:26:50.310Z,38.23
2023-01-20T17:29:22.092Z,35.13
2023-01-20T17:31:52.138Z,42.67
2023-01-20T17:34:24.730Z,46.80
2023-01-20T17:36:54.706Z,29.80
2023-01-20T17:39:24.686Z,24.40
2023-01-20T17:41:54.707Z,32.50
2023-01-20T17:44:24.771Z,23.73
2023-01-20T17:46:54.888Z,19.13
2023-01-20T17:49:27.539Z,23.43
2023-01-20T17:51:57.636Z,23.07
2023-01-20T17:54:27.598Z,22.60
2023-01-20T17:56:57.645Z,21.40
2023-01-20T17:59:28.375Z,22.47
2023-01-20T18:01:58.509Z,30.10
2023-01-20T18:04:31.207Z,30.67
2023-01-20T18:07:01.555Z,24.13
2023-01-20T18:09:31.590Z,28.57
2023-01-20T18:12:02.237Z,23.40
2023-01-20T18:14:32.214Z,30.77
2023-01-20T18:17:02.395Z,38.20
2023-01-20T18:19:35.647Z,58.90
2023-01-20T18:22:07.969Z,39.73
2023-01-20T18:24:38.582Z,39.30
2023-01-20T18:27:09.306Z,34.80
2023-01-20T18:29:39.352Z,30.57
2023-01-20T18:32:09.440Z,34.00
2023-01-20T18:34:42.107Z,35.57
2023-01-20T18:37:12.122Z,46.37
2023-01-20T18:39:42.179Z,34.47
2023-01-20T18:42:12.245Z,36.60
2023-01-20T18:44:42.256Z,31.83
2023-01-20T18:47:12.415Z,38.20
2023-01-20T18:49:45.011Z,33.73
2023-01-20T18:52:15.108Z,32.43
2023-01-20T18:54:45.112Z,31.37
2023-01-20T18:57:15.147Z,35.40
2023-01-20T18:59:45.120Z,38.47
2023-01-20T19:02:15.416Z,32.77
2023-01-20T19:04:48.250Z,117.10
2023-01-20T19:07:18.256Z,71.50
2023-01-20T19:09:48.319Z,90.30
2023-01-20T19:12:18.320Z,69.07
2023-01-20T19:14:48.268Z,51.27
2023-01-20T19:17:18.338Z,28.83
2023-01-20T19:19:51.026Z,33.27
2023-01-20T19:22:21.012Z,34.10
2023-01-20T19:24:50.992Z,38.80
2023-01-20T19:27:21.018Z,34.70
2023-01-20T19:29:51.287Z,38.07
2023-01-20T19:32:21.293Z,38.47
2023-01-20T19:34:53.841Z,38.50
2023-01-20T19:37:24.354Z,31.03
2023-01-20T19:39:54.340Z,43.97
2023-01-20T19:42:25.825Z,38.47
2023-01-20T19:44:55.943Z,45.23
2023-01-20T19:47:26.113Z,38.53
2023-01-20T19:49:58.706Z,32.07
2023-01-20T19:52:28.672Z,29.47
2023-01-20T19:54:58.681Z,27.87
2023-01-20T19:57:30.096Z,30.57
2023-01-20T20:00:00.106Z,26.90
2023-01-20T20:02:30.190Z,29.20
2023-01-20T20:05:02.980Z,23.73
2023-01-20T20:07:32.984Z,32.27
2023-01-20T20:10:03.013Z,26.53
2023-01-20T20:12:33.003Z,28.63
2023-01-20T20:15:03.098Z,37.33
2023-01-20T20:17:33.214Z,37.63
2023-01-20T20:20:06.059Z,32.40
2023-01-20T20:22:36.073Z,40.43
2023-01-20T20:25:09.882Z,37.13
2023-01-20T20:27:41.321Z,32.60
2023-01-20T20:30:13.944Z,50.07
2023-01-20T20:32:44.038Z,46.70
2023-01-20T20:35:17.433Z,36.80
2023-01-20T20:37:48.429Z,39.50
2023-01-20T20:40:18.841Z,45.60
2023-01-20T20:42:48.853Z,53.33
2023-01-20T20:45:19.219Z,44.10
2023-01-20T20:47:49.203Z,37.63
2023-01-20T20:50:24.012Z,36.63
2023-01-20T20:52:54.016Z,35.43
2023-01-20T20:55:25.185Z,32.20
2023-01-20T20:57:55.207Z,40.03
2023-01-20T21:00:28.258Z,39.03
2023-01-20T21:02:59.249Z,35.50
2023-01-20T21:05:33.854Z,36.30
2023-01-20T21:08:04.867Z,53.10
2023-01-20T21:10:35.457Z,41.93
2023-01-20T21:13:08.187Z,48.90
2023-01-20T21:15:38.816Z,38.33
2023-01-20T21:18:09.054Z,36.07
2023-01-20T21:20:41.738Z,40.90
2023-01-20T21:23:11.781Z,41.13
2023-01-20T21:25:41.752Z,36.90
2023-01-20T21:28:11.780Z,48.80
2023-01-20T21:30:41.857Z,44.63
2023-01-20T21:33:15.474Z,38.33
2023-01-20T21:35:48.535Z,34.70
2023-01-20T21:38:18.530Z,35.20
2023-01-20T21:40:59.978Z,30.00
2023-01-20T21:43:46.529Z,30.37
2023-01-20T21:46:16.697Z,31.70
2023-01-20T21:48:59.256Z,34.70
2023-01-20T21:51:44.489Z,37.30
2023-01-20T21:54:14.565Z,32.43
2023-01-20T21:56:44.610Z,27.60
2023-01-20T21:59:14.714Z,35.00
2023-01-20T22:01:44.794Z,34.57
2023-01-20T22:04:14.794Z,31.73
2023-01-20T22:06:48.371Z,29.93
2023-01-20T22:09:18.400Z,33.93
2023-01-20T22:11:48.535Z,40.67
2023-01-20T22:14:18.552Z,29.73
2023-01-20T22:16:48.521Z,34.30
2023-01-20T22:19:19.222Z,29.10
2023-01-20T22:21:51.839Z,32.60
2023-01-20T22:24:22.057Z,27.20
2023-01-20T22:26:52.720Z,41.70
2023-01-20T22:29:22.741Z,36.27
2023-01-20T22:31:55.210Z,32.80
2023-01-20T22:34:26.290Z,30.83
2023-01-20T22:37:01.734Z,35.60
2023-01-20T22:39:31.753Z,33.03
2023-01-20T22:42:01.746Z,41.07
2023-01-20T22:44:31.842Z,28.50
2023-01-20T22:47:01.865Z,30.23
2023-01-20T22:49:32.207Z,34.30
2023-01-20T22:52:04.775Z,31.37
2023-01-20T22:54:34.913Z,23.47
2023-01-20T22:57:04.899Z,27.37
2023-01-20T22:59:35.940Z,27.73
2023-01-20T23:02:06.276Z,30.13
2023-01-20T23:04:36.377Z,27.90
2023-01-20T23:07:09.041Z,36.93
2023-01-20T23:09:39.359Z,25.90
2023-01-20T23:12:09.912Z,33.70
2023-01-20T23:14:52.464Z,27.83
2023-01-20T23:17:22.430Z,25.87
2023-01-20T23:19:52.463Z,25.60
2023-01-20T23:22:26.527Z,30.07
2023-01-20T23:24:56.547Z,33.17
2023-01-20T23:27:26.593Z,29.80
2023-01-20T23:29:56.620Z,33.67
2023-01-20T23:32:26.785Z,29.90
2023-01-20T23:34:56.870Z,27.03
2023-01-20T23:37:29.473Z,33.33
2023-01-20T23:39:59.597Z,28.03
2023-01-20T23:42:29.960Z,28.67
2023-01-20T23:45:00.107Z,29.17
2023-01-20T23:47:30.274Z,25.90
2023-01-20T23:50:00.514Z,33.03
2023-01-20T23:52:33.119Z,33.97
2023-01-20T23:55:03.658Z,34.93
2023-01-20T23:57:33.906Z,29.10
